Time;durP1;ratioP1;P1;durP2;ratioP2;P2;SDS_P1;SDS_P2;PMS_P1;PMS_P2;Temp;Humidity;BMP_temperature;BMP_pressure;BME280_temperature;BME280_humidity;BME280_pressure;Samples;Min_cycle;Max_cycle;Signal;HPM_P1;HPM_P2
2023/03/02 00:02:00;;;;;;;0.00;0.00;;;;;;;-4.09;89.65;101595.16;4928054;29;20044;-77
2023/03/02 00:04:38;;;;;;;0.00;0.00;;;;;;;-4.15;90.33;101602.47;4930956;29;20167;-76
2023/03/02 00:07:07;;;;;;;0.00;0.00;;;;;;;-4.20;91.19;101594.41;4927524;29;20054;-77
2023/03/02 00:09:33;;;;;;;0.00;0.00;;;;;;;-4.25;91.37;101590.63;4933637;29;20050;-76
2023/03/02 00:11:58;;;;;;;0.00;0.00;;;;;;;-4.28;91.00;101599.84;4930662;29;20042;-77
2023/03/02 00:14:24;;;;;;;0.00;0.00;;;;;;;-4.33;91.19;101601.19;4929244;29;20043;-76
2023/03/02 00:16:49;;;;;;;0.00;0.00;;;;;;;-4.38;91.95;101599.97;4933576;29;20100;-77
2023/03/02 00:19:14;;;;;;;0.00;0.00;;;;;;;-4.40;92.30;101605.03;4920310;29;20058;-77
2023/03/02 00:21:40;;;;;;;0.10;0.10;;;;;;;-4.42;93.18;101607.50;4927966;29;20083;-77
2023/03/02 00:24:06;;;;;;;0.00;0.00;;;;;;;-4.37;92.82;101607.81;4930354;29;20039;-77
2023/03/02 00:26:34;;;;;;;0.00;0.00;;;;;;;-4.35;93.94;101602.75;4935060;29;20138;-76
2023/03/02 00:29:00;;;;;;;0.00;0.00;;;;;;;-4.42;94.25;101594.59;4929319;29;20530;-75
2023/03/02 00:31:25;;;;;;;0.00;0.00;;;;;;;-4.46;94.37;101595.16;4925428;29;20040;-76
2023/03/02 00:33:53;;;;;;;0.00;0.00;;;;;;;-4.44;94.46;101603.91;4927953;29;20047;-77
2023/03/02 00:36:19;;;;;;;0.00;0.00;;;;;;;-4.45;94.29;101599.53;4929711;29;20047;-77
2023/03/02 00:38:45;;;;;;;0.00;0.00;;;;;;;-4.48;94.32;101595.84;4934312;29;20051;-77
2023/03/02 00:41:12;;;;;;;0.00;0.00;;;;;;;-4.51;94.78;101596.50;4912982;29;20035;-76
2023/03/02 00:43:38;;;;;;;0.00;0.00;;;;;;;-4.56;96.10;101603.00;4930674;29;20047;-77
2023/03/02 00:46:11;;;;;;;0.00;0.00;;;;;;;-4.49;95.10;101584.63;4926710;29;20115;-77
2023/03/02 00:48:37;;;;;;;0.00;0.00;;;;;;;-4.51;95.71;101582.75;4925883;29;20415;-77
2023/03/02 00:51:02;;;;;;;0.00;0.00;;;;;;;-4.55;95.04;101573.91;4931037;29;20042;-77
2023/03/02 00:53:27;;;;;;;0.00;0.00;;;;;;;-4.56;95.84;101579.81;4927247;29;20044;-77
2023/03/02 00:55:53;;;;;;;0.00;0.00;;;;;;;-4.56;96.14;101582.41;4929335;29;20074;-77
2023/03/02 00:58:20;;;;;;;0.00;0.00;;;;;;;-4.56;95.98;101582.41;4927838;29;20395;-77
2023/03/02 01:00:45;;;;;;;0.00;0.00;;;;;;;-4.54;95.45;101580.84;4928922;29;20510;-77
2023/03/02 01:03:11;;;;;;;0.00;0.00;;;;;;;-4.50;94.48;101576.81;4920475;29;20042;-77
2023/03/02 01:05:37;;;;;;;0.00;0.00;;;;;;;-4.46;96.41;101573.66;4927126;29;20060;-76
2023/03/02 01:08:03;;;;;;;0.00;0.00;;;;;;;-4.47;96.14;101571.88;4919624;29;20038;-76
2023/03/02 01:10:30;;;;;;;0.00;0.00;;;;;;;-4.52;96.41;101568.97;4927145;29;20030;-77
2023/03/02 01:12:56;;;;;;;0.00;0.00;;;;;;;-4.62;96.41;101566.53;4924089;29;20034;-77
2023/03/02 01:15:21;;;;;;;0.00;0.00;;;;;;;-4.70;95.35;101554.78;4920446;29;20039;-77
2023/03/02 01:17:46;;;;;;;0.00;0.00;;;;;;;-4.75;96.85;101558.69;4920740;29;20047;-77
2023/03/02 01:20:12;;;;;;;0.00;0.00;;;;;;;-4.70;97.37;101553.09;4936402;29;20036;-76
2023/03/02 01:22:37;;;;;;;0.00;0.00;;;;;;;-4.66;97.34;101551.66;4931492;28;20062;-77
2023/03/02 01:25:04;;;;;;;0.00;0.00;;;;;;;-4.67;97.66;101543.00;4928039;29;20040;-75
2023/03/02 01:27:29;;;;;;;0.00;0.00;;;;;;;-4.69;97.19;101541.09;4927417;29;20081;-76
2023/03/02 01:29:54;;;;;;;0.00;0.00;;;;;;;-4.70;97.81;101539.31;4914805;29;20095;-77
2023/03/02 01:32:20;;;;;;;0.10;0.10;;;;;;;-4.70;98.33;101534.16;4925993;29;20039;-77
2023/03/02 01:34:46;;;;;;;0.00;0.00;;;;;;;-4.69;98.13;101534.28;4929566;29;20039;-77
2023/03/02 01:37:11;;;;;;;0.00;0.00;;;;;;;-4.68;97.84;101527.47;4930850;29;20431;-77
2023/03/02 01:39:37;;;;;;;0.00;0.00;;;;;;;-4.71;97.76;101527.25;4929541;29;20403;-76
2023/03/02 01:42:02;;;;;;;0.00;0.00;;;;;;;-4.75;97.47;101528.69;4918032;29;20099;-77
2023/03/02 01:44:33;;;;;;;0.00;0.00;;;;;;;-4.78;97.42;101523.31;4924138;29;20036;-77
2023/03/02 01:46:59;;;;;;;0.07;0.07;;;;;;;-4.76;96.89;101523.44;4926664;29;20410;-77
2023/03/02 01:49:25;;;;;;;0.00;0.00;;;;;;;-4.75;96.97;101517.50;4930967;29;20040;-77
2023/03/02 01:51:56;;;;;;;0.10;0.10;;;;;;;-4.74;97.38;101519.28;4930858;29;20024;-77
2023/03/02 01:54:22;;;;;;;0.00;0.00;;;;;;;-4.69;98.15;101513.69;4924782;29;20078;-77
2023/03/02 01:56:57;;;;;;;0.00;0.00;;;;;;;-4.67;98.00;101512.09;4918192;29;20028;-77
2023/03/02 01:59:23;;;;;;;0.10;0.10;;;;;;;-4.65;97.11;101520.81;4927795;29;20032;-77
2023/03/02 02:01:52;;;;;;;0.00;0.00;;;;;;;-4.59;97.35;101515.22;4932772;28;20720;-77
2023/03/02 02:04:20;;;;;;;0.10;0.10;;;;;;;-4.54;96.94;101511.28;4926841;29;20028;-77
2023/03/02 02:06:47;;;;;;;0.00;0.00;;;;;;;-4.52;96.18;101512.28;4930781;29;20039;-77
2023/03/02 02:09:15;;;;;;;0.00;0.00;;;;;;;-4.51;96.14;101501.19;4931343;29;20048;-77
2023/03/02 02:11:43;;;;;;;0.00;0.00;;;;;;;-4.51;96.75;101498.59;4924944;28;20040;-77
2023/03/02 02:14:08;;;;;;;0.00;0.00;;;;;;;-4.46;97.20;101496.34;4930919;29;20047;-76
2023/03/02 02:16:35;;;;;;;0.00;0.00;;;;;;;-4.35;96.61;101489.34;4928792;29;20032;-77
2023/03/02 02:19:21;;;;;;;0.10;0.10;;;;;;;-4.28;96.21;101489.88;4927894;29;20035;-77
2023/03/02 02:21:47;;;;;;;0.00;0.00;;;;;;;-4.25;96.09;101481.47;4910094;29;20036;-77
2023/03/02 02:24:20;;;;;;;0.00;0.00;;;;;;;-4.21;94.95;101478.31;4932683;29;20095;-76
2023/03/02 02:26:48;;;;;;;0.00;0.00;;;;;;;-4.19;94.53;101476.75;4923292;29;20039;-77
2023/03/02 02:29:26;;;;;;;0.10;0.10;;;;;;;-4.21;94.67;101475.75;4933122;29;20401;-77
2023/03/02 02:32:01;;;;;;;0.00;0.00;;;;;;;-4.25;95.03;101476.31;4925257;29;20076;-77
2023/03/02 02:34:34;;;;;;;0.00;0.00;;;;;;;-4.30;94.66;101477.69;4934522;29;20032;-76
2023/03/02 02:37:06;;;;;;;0.00;0.00;;;;;;;-4.32;94.45;101480.19;4936185;29;20047;-77
2023/03/02 02:39:36;;;;;;;0.05;0.05;;;;;;;-4.36;94.61;101477.28;4934334;29;20036;-77
2023/03/02 02:42:06;;;;;;;0.00;0.00;;;;;;;-4.38;94.52;101478.84;4929302;29;20040;-77
2023/03/02 02:44:32;;;;;;;0.00;0.00;;;;;;;-4.43;94.45;101484.59;4924493;29;20036;-77
2023/03/02 02:46:58;;;;;;;0.00;0.00;;;;;;;-4.45;94.23;101486.16;4926415;29;20032;-77
2023/03/02 02:49:32;;;;;;;0.00;0.00;;;;;;;-4.41;94.45;101475.25;4942158;29;20098;-76
2023/03/02 02:51:58;;;;;;;0.00;0.00;;;;;;;-4.39;94.67;101480.53;4935220;29;20044;-77
2023/03/02 02:54:23;;;;;;;0.00;0.00;;;;;;;-4.41;94.20;101475.25;4927802;29;20044;-77
2023/03/02 02:56:52;;;;;;;0.00;0.00;;;;;;;-4.41;94.87;101476.94;4933263;28;20031;-76
2023/03/02 02:59:24;;;;;;;0.00;0.00;;;;;;;-4.38;94.65;101471.13;4928477;29;20040;-77
2023/03/02 03:01:51;;;;;;;0.05;0.05;;;;;;;-4.39;94.87;101472.81;4923384;29;20036;-76
2023/03/02 03:04:19;;;;;;;0.00;0.00;;;;;;;-4.41;95.08;101472.69;4931895;29;20028;-76
2023/03/02 03:06:52;;;;;;;0.10;0.10;;;;;;;-4.42;95.39;101473.50;4930322;29;20036;-77
2023/03/02 03:09:17;;;;;;;;;;;;;;;-4.38;96.40;101474.56;4927710;29;20028;-76
2023/03/02 03:11:49;;;;;;;0.07;0.07;;;;;;;-4.35;96.81;101474.78;4927109;29;19914;-77
2023/03/02 03:14:18;;;;;;;0.00;0.00;;;;;;;-4.28;96.07;101477.00;4930255;29;20039;-77
2023/03/02 03:16:48;;;;;;;0.00;0.00;;;;;;;-4.21;96.39;101474.06;4918592;29;20038;-75
2023/03/02 03:19:23;;;;;;;0.00;0.00;;;;;;;-4.17;96.24;101477.72;4914196;29;20040;-77
2023/03/02 03:21:52;;;;;;;0.00;0.00;;;;;;;-4.18;95.97;101475.94;4921590;29;20119;-77
2023/03/02 03:24:18;;;;;;;0.00;0.00;;;;;;;-4.18;95.44;101473.38;4928598;29;20027;-77
2023/03/02 03:26:45;;;;;;;0.00;0.00;;;;;;;-4.21;96.94;101478.31;4928282;29;20086;-77
2023/03/02 03:29:12;;;;;;;0.10;0.10;;;;;;;-4.30;96.21;101469.94;4924744;29;20514;-76
2023/03/02 03:31:37;;;;;;;0.00;0.00;;;;;;;-4.40;95.57;101471.03;4928176;28;20494;-77
2023/03/02 03:34:04;;;;;;;0.10;0.10;;;;;;;-4.49;95.73;101471.25;4930681;29;20035;-77
2023/03/02 03:36:33;;;;;;;0.00;0.00;;;;;;;-4.72;99.05;101473.91;4932652;29;20039;-77
2023/03/02 03:38:59;;;;;;;0.00;0.00;;;;;;;-4.83;99.89;101472.28;4962072;23;20134;-71
2023/03/02 03:41:26;;;;;;;0.00;0.00;;;;;;;-4.95;100.00;101478.38;4982964;28;20042;-71
2023/03/02 03:43:51;;;;;;;0.00;0.00;;;;;;;-4.94;100.00;101479.25;4982177;28;20543;-71
2023/03/02 03:46:18;;;;;;;0.00;0.00;;;;;;;-5.00;100.00;101469.41;4967918;28;20110;-71
2023/03/02 03:48:45;;;;;;;0.00;0.00;;;;;;;-5.04;100.00;101476.81;4970544;28;20034;-71
2023/03/02 03:51:11;;;;;;;0.00;0.00;;;;;;;-5.12;100.00;101481.41;4964327;28;20054;-71
2023/03/02 03:53:36;;;;;;;0.00;0.00;;;;;;;-5.16;99.73;101481.94;4963035;28;20038;-71
2023/03/02 03:56:03;;;;;;;0.10;0.10;;;;;;;-5.17;98.98;101490.47;4964000;28;20093;-72
2023/03/02 03:58:30;;;;;;;0.00;0.00;;;;;;;-5.20;100.00;101479.97;4965764;28;20035;-71
2023/03/02 04:00:56;;;;;;;0.10;0.10;;;;;;;-5.24;99.34;101475.34;4980380;28;20066;-71
2023/03/02 04:03:22;;;;;;;0.00;0.00;;;;;;;-5.25;99.64;101477.03;4966950;28;20061;-72
2023/03/02 04:05:48;;;;;;;0.00;0.00;;;;;;;-5.21;99.31;101484.22;4979917;28;20066;-71
2023/03/02 04:08:14;;;;;;;0.00;0.00;;;;;;;-5.18;99.86;101484.44;4972181;28;20031;-71
2023/03/02 04:10:39;;;;;;;0.00;0.00;;;;;;;-5.15;99.53;101482.06;4962926;28;20034;-71
2023/03/02 04:13:05;;;;;;;0.00;0.00;;;;;;;-5.13;100.00;101479.63;4978585;28;20044;-72
2023/03/02 04:15:32;;;;;;;0.10;0.10;;;;;;;-5.16;100.00;101474.22;4969603;28;20408;-71
2023/03/02 04:17:58;;;;;;;0.00;0.00;;;;;;;-5.22;99.76;101476.38;4980384;28;20034;-71
2023/03/02 04:20:27;;;;;;;0.00;0.00;;;;;;;-5.32;99.11;101470.56;4976887;28;20035;-71
2023/03/02 04:22:56;;;;;;;0.03;0.03;;;;;;;-5.34;99.78;101477.28;4975902;28;20022;-71
2023/03/02 04:25:24;;;;;;;0.00;0.00;;;;;;;-5.33;99.90;101475.59;4964852;28;20130;-71
2023/03/02 04:27:53;;;;;;;0.00;0.00;;;;;;;-5.31;100.00;101477.50;4964930;28;20029;-71
2023/03/02 04:30:23;;;;;;;0.00;0.00;;;;;;;-5.28;100.00;101477.72;4977120;28;20035;-71
2023/03/02 04:32:49;;;;;;;0.00;0.00;;;;;;;-5.29;100.00;101470.78;4969786;28;20042;-72
2023/03/02 04:35:15;;;;;;;0.00;0.00;;;;;;;-5.25;100.00;101466.75;4963518;28;20035;-71
2023/03/02 04:37:42;;;;;;;0.00;0.00;;;;;;;-5.20;100.00;101469.66;4970341;28;20580;-71
2023/03/02 04:40:11;;;;;;;0.00;0.00;;;;;;;-5.17;100.00;101470.75;4972486;28;20525;-71
2023/03/02 04:42:36;;;;;;;0.00;0.00;;;;;;;-5.19;100.00;101464.59;4965666;28;20043;-71
2023/03/02 04:45:01;;;;;;;0.00;0.00;;;;;;;-5.17;100.00;101469.88;4965245;28;20042;-71
2023/03/02 04:47:27;;;;;;;0.00;0.00;;;;;;;-5.17;100.00;101477.59;4962442;28;20043;-71
2023/03/02 04:49:53;;;;;;;0.00;0.00;;;;;;;-5.22;100.00;101474.69;4972363;28;20521;-71
2023/03/02 04:52:19;;;;;;;0.00;0.00;;;;;;;-5.26;100.00;101466.66;4969997;28;20412;-71
2023/03/02 04:54:45;;;;;;;0.10;0.10;;;;;;;-5.33;100.00;101463.63;4967466;28;20512;-71
2023/03/02 04:57:10;;;;;;;0.00;0.00;;;;;;;-5.38;100.00;101464.97;4965587;28;20043;-71
2023/03/02 04:59:35;;;;;;;0.00;0.00;;;;;;;-5.41;100.00;101464.75;4965242;28;20110;-72
2023/03/02 05:02:01;;;;;;;0.00;0.00;;;;;;;-5.43;100.00;101462.84;4961920;28;20466;-72
2023/03/02 05:04:27;;;;;;;0.00;0.00;;;;;;;-5.41;100.00;101467.31;4966840;28;20442;-71
2023/03/02 05:06:52;;;;;;;0.00;0.00;;;;;;;-5.40;100.00;101474.25;4971542;28;20069;-71
2023/03/02 05:09:18;;;;;;;0.00;0.00;;;;;;;-5.39;100.00;101464.88;4965006;28;20047;-71
2023/03/02 05:11:44;;;;;;;0.00;0.00;;;;;;;-5.36;100.00;101471.13;4964748;28;20054;-71
2023/03/02 05:14:11;;;;;;;0.00;0.00;;;;;;;-5.33;100.00;101458.47;4968438;28;20023;-72
2023/03/02 05:16:39;;;;;;;0.10;0.10;;;;;;;-5.35;100.00;101462.59;4963765;28;20027;-71
2023/03/02 05:19:08;;;;;;;0.00;0.00;;;;;;;-5.34;100.00;101467.00;4966476;28;20035;-72
2023/03/02 05:21:34;;;;;;;0.00;0.00;;;;;;;-5.41;100.00;101469.91;4962824;28;20126;-71
2023/03/02 05:23:59;;;;;;;0.00;0.00;;;;;;;-5.47;100.00;101463.44;4964863;28;20106;-71
2023/03/02 05:26:25;;;;;;;0.07;0.07;;;;;;;-5.44;100.00;101467.09;4965514;28;20043;-71
2023/03/02 05:28:50;;;;;;;0.00;0.00;;;;;;;-5.46;100.00;101460.94;4969392;28;20045;-72
2023/03/02 05:31:22;;;;;;;0.00;0.00;;;;;;;-5.40;100.00;101463.94;4972304;28;20039;-71
2023/03/02 05:33:47;;;;;;;0.10;0.10;;;;;;;-5.37;100.00;101465.84;4970126;28;20035;-71
2023/03/02 05:36:13;;;;;;;0.00;0.00;;;;;;;-5.36;100.00;101468.56;4972935;28;20053;-71
2023/03/02 05:38:38;;;;;;;0.10;0.10;;;;;;;-5.32;100.00;101460.28;4968401;28;20089;-71
2023/03/02 05:41:04;;;;;;;0.00;0.00;;;;;;;-5.29;100.00;101459.63;4964577;28;20035;-71
2023/03/02 05:43:29;;;;;;;0.00;0.00;;;;;;;-5.29;100.00;101460.50;4964862;28;20027;-71
2023/03/02 05:45:59;;;;;;;0.00;0.00;;;;;;;-5.28;100.00;101467.44;4965154;28;20496;-71
2023/03/02 05:48:26;;;;;;;0.00;0.00;;;;;;;-5.30;100.00;101453.53;4963668;28;20401;-71
2023/03/02 05:50:51;;;;;;;0.00;0.00;;;;;;;-5.33;100.00;101466.19;4966906;28;20424;-72
2023/03/02 05:53:17;;;;;;;0.00;0.00;;;;;;;-5.33;100.00;101468.78;4970481;28;20089;-72
2023/03/02 05:55:42;;;;;;;0.00;0.00;;;;;;;-5.29;100.00;101464.75;4968171;28;20053;-72
2023/03/02 05:58:13;;;;;;;0.00;0.00;;;;;;;-5.26;100.00;101471.81;4965684;28;20093;-71
2023/03/02 06:00:38;;;;;;;0.00;0.00;;;;;;;-5.33;100.00;101466.19;4966884;28;20047;-72
2023/03/02 06:03:04;;;;;;;0.00;0.00;;;;;;;-5.34;100.00;101467.00;4964535;28;20039;-72
2023/03/02 06:05:29;;;;;;;0.00;0.00;;;;;;;-5.30;100.00;101458.69;4962960;28;20477;-72
2023/03/02 06:07:55;;;;;;;0.10;0.10;;;;;;;-5.18;100.00;101460.38;4969221;28;20039;-72
2023/03/02 06:10:21;;;;;;;0.00;0.00;;;;;;;-5.09;100.00;101458.44;4964482;28;20042;-72
2023/03/02 06:12:46;;;;;;;0.10;0.10;;;;;;;-5.10;100.00;101467.84;4965767;28;20138;-72
2023/03/02 06:15:11;;;;;;;0.10;0.10;;;;;;;-5.17;100.00;101473.34;4966975;28;20038;-73
2023/03/02 06:17:37;;;;;;;0.00;0.00;;;;;;;-5.15;100.00;101468.31;4965712;28;20050;-72
2023/03/02 06:20:09;;;;;;;0.00;0.00;;;;;;;-5.08;100.00;101466.28;4968218;28;20118;-72
2023/03/02 06:22:34;;;;;;;0.10;0.10;;;;;;;-5.02;100.00;101470.97;4962696;28;20126;-72
2023/03/02 06:24:59;;;;;;;0.00;0.00;;;;;;;-4.99;100.00;101471.19;4962465;28;20105;-72
2023/03/02 06:27:25;;;;;;;0.10;0.10;;;;;;;-4.93;100.00;101471.63;4958966;28;20093;-72
2023/03/02 06:29:50;;;;;;;0.10;0.10;;;;;;;-4.81;100.00;101465.56;4962030;28;20042;-72
2023/03/02 06:32:15;;;;;;;0.10;0.10;;;;;;;-4.69;100.00;101468.97;4964887;28;20085;-72
2023/03/02 06:34:41;;;;;;;0.00;0.00;;;;;;;-4.56;100.00;101479.34;4964488;28;20039;-71
2023/03/02 06:37:06;;;;;;;0.00;0.00;;;;;;;-4.48;100.00;101475.66;4973225;28;20054;-71
2023/03/02 06:39:32;;;;;;;0.00;0.00;;;;;;;-4.35;100.00;101474.78;4967623;28;20126;-72
2023/03/02 06:41:59;;;;;;;0.10;0.10;;;;;;;-4.22;100.00;101476.53;4967984;28;20509;-72
2023/03/02 06:44:24;;;;;;;0.10;0.10;;;;;;;-4.10;100.00;101487.69;4960017;28;20039;-72
2023/03/02 06:46:49;;;;;;;0.10;0.10;;;;;;;-3.98;100.00;101477.31;4974468;28;20039;-72
2023/03/02 06:49:15;;;;;;;0.00;0.00;;;;;;;-3.88;100.00;101473.66;4971668;28;20043;-72
2023/03/02 06:51:40;;;;;;;0.10;0.10;;;;;;;-3.78;100.00;101476.03;4971389;28;20043;-72
2023/03/02 06:54:07;;;;;;;0.00;0.00;;;;;;;-3.68;100.00;101478.44;4967058;28;20035;-72
2023/03/02 06:56:33;;;;;;;0.10;0.10;;;;;;;-3.58;100.00;101480.84;4964982;28;20062;-72
2023/03/02 06:58:58;;;;;;;0.00;0.00;;;;;;;-3.49;100.00;101466.75;4967663;28;20401;-72
2023/03/02 07:01:24;;;;;;;0.00;0.00;;;;;;;-3.39;100.00;101476.88;4973795;28;20062;-72
2023/03/02 07:03:49;;;;;;;0.10;0.10;;;;;;;-3.28;100.00;101475.00;4973764;28;20473;-71
2023/03/02 07:06:14;;;;;;;0.00;0.00;;;;;;;-3.17;100.00;101474.00;4966412;28;20430;-72
2023/03/02 07:08:40;;;;;;;0.00;0.00;;;;;;;-3.05;100.00;101479.06;4969965;28;20564;-72
2023/03/02 07:11:09;;;;;;;0.10;0.10;;;;;;;-2.94;100.00;101480.63;4967704;28;20061;-72
2023/03/02 07:13:36;;;;;;;0.03;0.03;;;;;;;-2.84;100.00;101477.81;4970530;28;20114;-72
2023/03/02 07:16:06;;;;;;;0.00;0.00;;;;;;;-2.73;100.00;101474.22;4970419;28;20046;-72
2023/03/02 07:18:31;;;;;;;0.00;0.00;;;;;;;-2.65;100.00;101469.53;4972624;28;20085;-71
2023/03/02 07:20:56;;;;;;;0.07;0.07;;;;;;;-2.55;100.00;101463.25;4967702;28;20042;-71
2023/03/02 07:23:22;;;;;;;0.10;0.10;;;;;;;-2.46;100.00;101466.41;4964353;28;20082;-72
2023/03/02 07:25:47;;;;;;;0.10;0.10;;;;;;;-2.39;100.00;101470.25;4967957;28;20199;-72
2023/03/02 07:28:13;;;;;;;0.10;0.10;;;;;;;-2.31;100.00;101466.44;4965824;28;20510;-72
2023/03/02 07:30:38;;;;;;;0.00;0.00;;;;;;;-2.23;99.39;101476.44;4969321;28;20489;-72
2023/03/02 07:33:03;;;;;;;0.10;0.10;;;;;;;-2.12;99.05;101479.69;4969450;28;20030;-72
2023/03/02 07:35:29;;;;;;;0.10;0.10;;;;;;;-2.04;98.87;101473.28;4966996;28;20089;-72
2023/03/02 07:37:54;;;;;;;0.00;0.00;;;;;;;-1.93;98.27;101473.00;4969502;28;20030;-72
2023/03/02 07:40:19;;;;;;;0.10;0.10;;;;;;;-1.83;97.97;101475.34;4966615;28;20038;-72
2023/03/02 07:42:45;;;;;;;0.00;0.00;;;;;;;-1.72;98.17;101469.09;4966695;28;20041;-72
2023/03/02 07:45:12;;;;;;;0.10;0.10;;;;;;;-1.62;97.97;101478.28;4962355;28;20122;-72
2023/03/02 07:47:37;;;;;;;0.00;0.00;;;;;;;-1.52;97.78;101470.22;4971694;28;20685;-72
2023/03/02 07:50:03;;;;;;;0.10;0.10;;;;;;;-1.40;97.90;101476.13;4966830;28;20398;-72
2023/03/02 07:52:29;;;;;;;0.10;0.10;;;;;;;-1.25;97.42;101480.41;4968176;28;20489;-72
2023/03/02 07:54:55;;;;;;;0.10;0.10;;;;;;;-1.13;97.71;101483.66;4966170;28;20039;-72
2023/03/02 07:57:20;;;;;;;0.10;0.10;;;;;;;-1.01;96.91;101483.47;4968757;28;20121;-72
2023/03/02 07:59:46;;;;;;;0.00;0.00;;;;;;;-0.90;96.66;101480.66;4983579;28;20038;-72
2023/03/02 08:02:14;;;;;;;0.10;0.10;;;;;;;-0.75;96.58;101483.22;4965963;28;20122;-72
2023/03/02 08:04:39;;;;;;;0.10;0.10;;;;;;;-0.65;96.42;101479.41;4965335;28;20092;-72
2023/03/02 08:07:05;;;;;;;0.10;0.10;;;;;;;-0.56;96.48;101482.50;4967029;28;20034;-72
2023/03/02 08:09:31;;;;;;;0.10;0.10;;;;;;;-0.45;96.01;101481.41;4963766;28;20118;-72
2023/03/02 08:11:56;;;;;;;0.07;0.07;;;;;;;-0.37;95.83;101486.06;4965764;28;20045;-72
2023/03/02 08:14:21;;;;;;;0.00;0.00;;;;;;;-0.29;95.42;101474.41;4970564;28;20047;-72
2023/03/02 08:16:47;;;;;;;0.10;0.10;;;;;;;-0.19;95.01;101476.66;4972006;28;20035;-72
2023/03/02 08:19:12;;;;;;;0.10;0.10;;;;;;;-0.08;94.56;101475.53;4964170;28;20034;-72
2023/03/02 08:21:37;;;;;;;0.10;0.10;;;;;;;0.04;94.96;101464.88;4964429;28;20050;-72
2023/03/02 08:24:03;;;;;;;0.10;0.10;;;;;;;0.18;94.41;101465.59;4966134;28;20042;-72
2023/03/02 08:26:29;;;;;;;0.10;0.10;;;;;;;0.31;93.68;101465.38;4964347;28;20046;-72
2023/03/02 08:28:54;;;;;;;0.10;0.10;;;;;;;0.46;92.13;101470.47;4965684;28;20463;-73
2023/03/02 08:31:20;;;;;;;0.10;0.10;;;;;;;0.55;90.87;101465.75;4963774;28;20073;-72
2023/03/02 08:33:45;;;;;;;0.10;0.10;;;;;;;0.67;89.22;101454.16;4966978;28;20038;-72
2023/03/02 08:36:16;;;;;;;0.10;0.10;;;;;;;0.82;89.34;101462.69;4969802;28;20093;-72
2023/03/02 08:38:42;;;;;;;0.10;0.10;;;;;;;0.95;89.08;101461.59;4969048;28;20039;-72
2023/03/02 08:41:11;;;;;;;0.10;0.10;;;;;;;1.14;88.33;101455.53;4965234;28;20031;-72
2023/03/02 08:43:36;;;;;;;0.10;0.10;;;;;;;1.28;88.23;101459.66;4964179;28;20516;-72
2023/03/02 08:46:02;;;;;;;0.10;0.10;;;;;;;1.44;87.01;101451.75;4970347;28;20118;-72
2023/03/02 08:48:27;;;;;;;0.10;0.10;;;;;;;1.56;86.26;101443.59;4963645;28;20031;-72
2023/03/02 08:51:02;;;;;;;0.10;0.10;;;;;;;1.68;85.82;101438.94;4965190;28;20042;-72
2023/03/02 08:53:30;;;;;;;0.10;0.10;;;;;;;1.80;85.06;101432.50;4963346;28;20030;-72
2023/03/02 08:55:56;;;;;;;0.10;0.10;;;;;;;1.86;82.47;101432.75;4965983;28;20069;-72
2023/03/02 08:58:21;;;;;;;0.10;0.10;;;;;;;1.98;82.65;101430.69;4968310;28;20125;-72
2023/03/02 09:00:47;;;;;;;0.10;0.10;;;;;;;2.14;81.10;101425.28;4961271;28;20491;-72
2023/03/02 09:03:12;;;;;;;0.10;0.10;;;;;;;2.31;80.40;101422.53;4963884;28;20110;-72
2023/03/02 09:05:37;;;;;;;0.10;0.10;;;;;;;2.46;80.10;101417.94;4965429;28;20042;-72
2023/03/02 09:08:03;;;;;;;0.10;0.10;;;;;;;2.61;79.56;101423.75;4970332;28;20047;-72
2023/03/02 09:10:29;;;;;;;0.10;0.10;;;;;;;2.74;78.85;101408.63;4964996;28;20042;-72
2023/03/02 09:12:54;;;;;;;0.10;0.10;;;;;;;2.88;79.17;101417.88;4962501;28;20043;-72
2023/03/02 09:15:19;;;;;;;0.10;0.10;;;;;;;2.99;77.72;101413.97;4964057;28;20035;-72
2023/03/02 09:17:45;;;;;;;0.10;0.10;;;;;;;3.05;75.35;101413.31;4967932;28;20035;-72
2023/03/02 09:20:10;;;;;;;0.10;0.10;;;;;;;3.18;75.87;101412.06;4966868;28;20382;-72
2023/03/02 09:22:36;;;;;;;0.10;0.10;;;;;;;3.28;75.58;101412.47;4965820;28;20520;-72
2023/03/02 09:25:03;;;;;;;0.10;0.10;;;;;;;3.42;75.63;101414.72;4966671;28;20034;-72
2023/03/02 09:27:29;;;;;;;0.10;0.10;;;;;;;3.49;75.03;101409.78;4962127;28;20038;-72
2023/03/02 09:29:55;;;;;;;0.10;0.10;;;;;;;3.60;74.12;101412.78;4965234;28;20027;-72
2023/03/02 09:32:20;;;;;;;0.10;0.10;;;;;;;3.70;74.71;101417.50;4964431;28;20077;-72
2023/03/02 09:34:45;;;;;;;0.10;0.10;;;;;;;3.80;73.67;101412.59;4971293;28;20086;-72
2023/03/02 09:37:10;;;;;;;0.10;0.10;;;;;;;3.94;73.79;101414.84;4970643;28;20039;-72
2023/03/02 09:39:37;;;;;;;0.10;0.10;;;;;;;4.04;72.08;101417.81;4964389;28;20038;-72
2023/03/02 09:42:25;;;;;;;0.10;0.10;;;;;;;4.13;72.17;101408.53;4961124;28;20046;-72
2023/03/02 09:45:38;;;;;;;0.10;0.10;;;;;;;4.23;71.39;101409.75;4961659;28;20042;-72
2023/03/02 09:48:13;;;;;;;0.10;0.10;;;;;;;4.29;71.52;101417.78;4939098;28;20051;-72
2023/03/02 09:50:43;;;;;;;0.10;0.10;;;;;;;4.36;71.45;101411.91;4967711;28;20051;-72
2023/03/02 09:53:30;;;;;;;0.10;0.10;;;;;;;4.49;70.92;101409.72;4965949;28;20042;-72
2023/03/02 09:55:59;;;;;;;0.10;0.10;;;;;;;4.58;70.45;101408.31;4965373;28;20082;-72
2023/03/02 09:58:30;;;;;;;0.10;0.10;;;;;;;4.71;69.71;101401.72;4960872;28;20498;-72
2023/03/02 10:00:59;;;;;;;0.10;0.10;;;;;;;4.78;68.67;101405.41;4966774;28;20045;-72
2023/03/02 10:03:35;;;;;;;0.10;0.10;;;;;;;4.94;69.96;101402.44;5029224;23;20045;-77
2023/03/02 10:06:01;;;;;;;0.10;0.10;;;;;;;5.04;68.78;101401.00;5025143;28;20061;-78
2023/03/02 10:08:29;;;;;;;0.10;0.10;;;;;;;5.14;67.93;101400.44;5030320;28;20091;-77
2023/03/02 10:11:06;;;;;;;0.10;0.10;;;;;;;5.23;67.79;101392.84;5034122;28;20495;-78
2023/03/02 10:13:45;;;;;;;0.00;0.00;;;;;;;5.33;66.56;101388.75;5001924;28;20042;-77
2023/03/02 10:16:16;;;;;;;0.10;0.10;;;;;;;5.38;66.95;101384.53;4991651;28;20049;-78
2023/03/02 10:19:08;;;;;;;0.10;0.10;;;;;;;5.49;64.88;101392.69;4996530;28;20046;-77
2023/03/02 10:21:40;;;;;;;0.10;0.10;;;;;;;5.58;66.15;101387.75;4998137;28;20034;-77
2023/03/02 10:24:30;;;;;;;0.10;0.10;;;;;;;5.66;64.07;101374.88;4990332;28;20051;-78
2023/03/02 10:27:11;;;;;;;0.10;0.10;;;;;;;5.63;64.01;101378.28;4996411;28;20034;-78
2023/03/02 10:29:57;;;;;;;0.10;0.10;;;;;;;5.75;64.57;101379.44;4991305;28;20042;-77
2023/03/02 10:32:26;;;;;;;0.10;0.10;;;;;;;5.84;65.33;101374.44;4993093;28;20049;-78
2023/03/02 10:34:52;;;;;;;0.10;0.10;;;;;;;5.93;64.98;101372.09;4990791;28;20611;-78
2023/03/02 10:37:26;;;;;;;0.10;0.10;;;;;;;5.97;64.08;101371.31;4993482;28;20058;-78
2023/03/02 10:39:51;;;;;;;0.10;0.10;;;;;;;6.06;64.35;101368.09;4989028;28;20089;-77
2023/03/02 10:42:24;;;;;;;0.10;0.10;;;;;;;6.18;64.49;101371.00;4996250;28;20117;-77
2023/03/02 10:44:54;;;;;;;0.20;0.20;;;;;;;6.26;63.86;101368.56;4989082;28;20401;-77
2023/03/02 10:47:23;;;;;;;0.10;0.10;;;;;;;6.32;63.68;101366.13;4992297;28;20066;-78
2023/03/02 10:49:50;;;;;;;0.10;0.10;;;;;;;6.39;63.73;101360.16;4990080;28;20039;-77
2023/03/02 10:52:21;;;;;;;0.00;0.00;;;;;;;6.47;62.44;101365.56;4993719;28;20399;-78
2023/03/02 10:54:46;;;;;;;0.10;0.10;;;;;;;6.52;63.56;101353.47;4992977;28;20100;-77
2023/03/02 10:57:27;;;;;;;0.10;0.10;;;;;;;6.64;62.45;101358.13;4986236;28;20042;-78
2023/03/02 10:59:58;;;;;;;0.10;0.10;;;;;;;6.65;61.36;101357.25;4992149;28;20069;-78
2023/03/02 11:02:26;;;;;;;0.15;0.15;;;;;;;6.67;62.24;101351.19;4999561;28;20524;-78
2023/03/02 11:05:25;;;;;;;0.10;0.10;;;;;;;6.79;60.88;101345.38;4991657;28;20061;-78
2023/03/02 11:07:52;;;;;;;0.13;0.13;;;;;;;6.83;61.44;101338.44;4997672;28;20109;-78
2023/03/02 11:10:20;;;;;;;0.10;0.10;;;;;;;6.90;61.71;101335.09;4990563;28;20035;-78
2023/03/02 11:12:47;;;;;;;0.10;0.10;;;;;;;6.97;61.76;101337.00;4995079;28;20403;-78
2023/03/02 11:15:22;;;;;;;0.10;0.10;;;;;;;7.05;60.42;101327.56;4992507;28;20042;-78
2023/03/02 11:18:23;;;;;;;0.10;0.10;;;;;;;7.16;60.18;101322.53;4996515;28;20100;-78
2023/03/02 11:20:53;;;;;;;0.10;0.10;;;;;;;7.23;60.88;101321.78;4984461;28;20049;-78
2023/03/02 11:23:44;;;;;;;0.20;0.20;;;;;;;7.28;58.73;101322.75;4992987;28;20038;-78
2023/03/02 11:26:32;;;;;;;0.10;0.10;;;;;;;7.36;59.78;101321.19;4996596;28;20042;-78
2023/03/02 11:29:28;;;;;;;0.10;0.10;;;;;;;7.42;57.99;101315.16;4987949;28;20132;-77